sensor_id;sensor_type;location;lat;lon;timestamp;pressure;altitude;pressure_sealevel;temperature
68027;BMP180;54819;48.030;14.710;2023-02-04T00:00:20;97843.00;;;5.70
68027;BMP180;54819;48.030;14.710;2023-02-04T00:02:49;97828.00;;;5.72
68027;BMP180;54819;48.030;14.710;2023-02-04T00:05:16;97829.40;;;5.70
68027;BMP180;54819;48.030;14.710;2023-02-04T00:07:44;97833.60;;;5.70
68027;BMP180;54819;48.030;14.710;2023-02-04T00:10:11;97830.60;;;5.76
68027;BMP180;54819;48.030;14.710;2023-02-04T00:12:37;97819.00;;;5.78
68027;BMP180;54819;48.030;14.710;2023-02-04T00:15:05;97826.40;;;5.74
68027;BMP180;54819;48.030;14.710;2023-02-04T00:17:31;97833.00;;;5.82
68027;BMP180;54819;48.030;14.710;2023-02-04T00:19:58;97836.00;;;5.80
68027;BMP180;54819;48.030;14.710;2023-02-04T00:22:25;97824.60;;;5.80
68027;BMP180;54819;48.030;14.710;2023-02-04T00:24:54;97828.00;;;5.80
68027;BMP180;54819;48.030;14.710;2023-02-04T00:27:21;97840.40;;;5.80
68027;BMP180;54819;48.030;14.710;2023-02-04T00:29:48;97840.80;;;5.80
68027;BMP180;54819;48.030;14.710;2023-02-04T00:32:15;97850.20;;;5.90
68027;BMP180;54819;48.030;14.710;2023-02-04T00:34:42;97847.60;;;5.90
68027;BMP180;54819;48.030;14.710;2023-02-04T00:37:09;97862.00;;;5.90
68027;BMP180;54819;48.030;14.710;2023-02-04T00:39:36;97860.80;;;5.90
68027;BMP180;54819;48.030;14.710;2023-02-04T00:42:05;97863.60;;;5.92
68027;BMP180;54819;48.030;14.710;2023-02-04T00:44:34;97868.60;;;5.90
68027;BMP180;54819;48.030;14.710;2023-02-04T00:47:02;97874.00;;;6.00
68027;BMP180;54819;48.030;14.710;2023-02-04T00:49:30;97883.80;;;6.00
68027;BMP180;54819;48.030;14.710;2023-02-04T00:51:57;97884.20;;;6.00
68027;BMP180;54819;48.030;14.710;2023-02-04T00:54:24;97885.20;;;6.00
68027;BMP180;54819;48.030;14.710;2023-02-04T00:56:51;97883.00;;;6.10
68027;BMP180;54819;48.030;14.710;2023-02-04T00:59:18;97888.80;;;6.10
68027;BMP180;54819;48.030;14.710;2023-02-04T01:01:45;97879.40;;;6.10
68027;BMP180;54819;48.030;14.710;2023-02-04T01:04:13;97880.40;;;6.10
68027;BMP180;54819;48.030;14.710;2023-02-04T01:06:40;97880.80;;;6.10
68027;BMP180;54819;48.030;14.710;2023-02-04T01:09:08;97877.80;;;6.20
68027;BMP180;54819;48.030;14.710;2023-02-04T01:11:35;97873.60;;;6.20
68027;BMP180;54819;48.030;14.710;2023-02-04T01:14:03;97879.60;;;6.16
68027;BMP180;54819;48.030;14.710;2023-02-04T01:16:30;97876.60;;;6.14
68027;BMP180;54819;48.030;14.710;2023-02-04T01:18:57;97875.80;;;6.12
68027;BMP180;54819;48.030;14.710;2023-02-04T01:21:26;97882.60;;;6.10
68027;BMP180;54819;48.030;14.710;2023-02-04T01:23:52;97882.60;;;6.10
68027;BMP180;54819;48.030;14.710;2023-02-04T01:26:20;97874.00;;;6.10
68027;BMP180;54819;48.030;14.710;2023-02-04T01:28:47;97869.80;;;6.12
68027;BMP180;54819;48.030;14.710;2023-02-04T01:31:14;97877.60;;;6.18
68027;BMP180;54819;48.030;14.710;2023-02-04T01:33:41;97879.00;;;6.10
68027;BMP180;54819;48.030;14.710;2023-02-04T01:36:08;97867.00;;;6.10
68027;BMP180;54819;48.030;14.710;2023-02-04T01:38:35;97868.60;;;6.10
68027;BMP180;54819;48.030;14.710;2023-02-04T01:41:04;97870.00;;;6.10
68027;BMP180;54819;48.030;14.710;2023-02-04T01:43:31;97867.60;;;6.12
68027;BMP180;54819;48.030;14.710;2023-02-04T01:45:58;97867.60;;;6.10
68027;BMP180;54819;48.030;14.710;2023-02-04T01:48:25;97874.20;;;6.20
68027;BMP180;54819;48.030;14.710;2023-02-04T01:50:59;97861.20;;;6.20
68027;BMP180;54819;48.030;14.710;2023-02-04T01:53:28;97867.00;;;6.24
68027;BMP180;54819;48.030;14.710;2023-02-04T01:55:55;97858.60;;;6.30
68027;BMP180;54819;48.030;14.710;2023-02-04T01:58:22;97868.20;;;6.28
68027;BMP180;54819;48.030;14.710;2023-02-04T02:00:49;97874.20;;;6.20
68027;BMP180;54819;48.030;14.710;2023-02-04T02:03:16;97870.40;;;6.28
68027;BMP180;54819;48.030;14.710;2023-02-04T02:05:51;97870.20;;;6.30
68027;BMP180;54819;48.030;14.710;2023-02-04T02:08:19;97875.60;;;6.30
68027;BMP180;54819;48.030;14.710;2023-02-04T02:10:47;97885.00;;;6.28
68027;BMP180;54819;48.030;14.710;2023-02-04T02:13:16;97895.40;;;6.24
68027;BMP180;54819;48.030;14.710;2023-02-04T02:15:44;97895.60;;;6.30
68027;BMP180;54819;48.030;14.710;2023-02-04T02:18:11;97887.00;;;6.30
68027;BMP180;54819;48.030;14.710;2023-02-04T02:20:38;97888.80;;;6.30
68027;BMP180;54819;48.030;14.710;2023-02-04T02:23:26;97890.60;;;6.30
68027;BMP180;54819;48.030;14.710;2023-02-04T02:25:55;97884.20;;;6.30
68027;BMP180;54819;48.030;14.710;2023-02-04T02:28:23;97893.20;;;6.30
68027;BMP180;54819;48.030;14.710;2023-02-04T02:30:50;97889.00;;;6.30
68027;BMP180;54819;48.030;14.710;2023-02-04T02:33:19;97898.20;;;6.30
68027;BMP180;54819;48.030;14.710;2023-02-04T02:35:47;97898.20;;;6.30
68027;BMP180;54819;48.030;14.710;2023-02-04T02:38:15;97895.00;;;6.30
68027;BMP180;54819;48.030;14.710;2023-02-04T02:40:43;97904.00;;;6.30
68027;BMP180;54819;48.030;14.710;2023-02-04T02:43:14;97902.60;;;6.30
68027;BMP180;54819;48.030;14.710;2023-02-04T02:45:42;97893.40;;;6.30
68027;BMP180;54819;48.030;14.710;2023-02-04T02:48:10;97908.00;;;6.30
68027;BMP180;54819;48.030;14.710;2023-02-04T02:50:37;97906.80;;;6.30
68027;BMP180;54819;48.030;14.710;2023-02-04T02:53:09;97910.40;;;6.30
68027;BMP180;54819;48.030;14.710;2023-02-04T02:55:38;97900.60;;;6.30
68027;BMP180;54819;48.030;14.710;2023-02-04T02:58:15;97907.00;;;6.26
68027;BMP180;54819;48.030;14.710;2023-02-04T03:00:43;97903.00;;;6.30
68027;BMP180;54819;48.030;14.710;2023-02-04T03:03:16;97917.60;;;6.26
68027;BMP180;54819;48.030;14.710;2023-02-04T03:05:47;97935.20;;;6.28
68027;BMP180;54819;48.030;14.710;2023-02-04T03:08:15;97908.80;;;6.30
68027;BMP180;54819;48.030;14.710;2023-02-04T03:10:43;97911.80;;;6.30
68027;BMP180;54819;48.030;14.710;2023-02-04T03:13:12;97928.80;;;6.30
68027;BMP180;54819;48.030;14.710;2023-02-04T03:15:42;97925.80;;;6.30
68027;BMP180;54819;48.030;14.710;2023-02-04T03:18:10;97933.80;;;6.30
68027;BMP180;54819;48.030;14.710;2023-02-04T03:20:38;97934.20;;;6.30
68027;BMP180;54819;48.030;14.710;2023-02-04T03:23:05;97931.40;;;6.30
68027;BMP180;54819;48.030;14.710;2023-02-04T03:25:32;97942.60;;;6.30
68027;BMP180;54819;48.030;14.710;2023-02-04T03:27:59;97944.20;;;6.30
68027;BMP180;54819;48.030;14.710;2023-02-04T03:30:27;97962.60;;;6.30
68027;BMP180;54819;48.030;14.710;2023-02-04T03:32:53;97952.40;;;6.30
68027;BMP180;54819;48.030;14.710;2023-02-04T03:35:20;97960.80;;;6.30
68027;BMP180;54819;48.030;14.710;2023-02-04T03:37:47;97958.00;;;6.30
68027;BMP180;54819;48.030;14.710;2023-02-04T03:40:14;97956.80;;;6.24
68027;BMP180;54819;48.030;14.710;2023-02-04T03:42:41;97971.00;;;6.20
68027;BMP180;54819;48.030;14.710;2023-02-04T03:45:08;97984.40;;;6.20
68027;BMP180;54819;48.030;14.710;2023-02-04T03:47:35;97980.20;;;6.20
68027;BMP180;54819;48.030;14.710;2023-02-04T03:50:02;97978.40;;;6.20
68027;BMP180;54819;48.030;14.710;2023-02-04T03:52:29;97976.00;;;6.20
68027;BMP180;54819;48.030;14.710;2023-02-04T03:54:56;97980.20;;;6.14
68027;BMP180;54819;48.030;14.710;2023-02-04T03:57:22;97978.40;;;6.10
68027;BMP180;54819;48.030;14.710;2023-02-04T03:59:49;97981.20;;;6.12
68027;BMP180;54819;48.030;14.710;2023-02-04T04:02:16;97973.20;;;6.10
68027;BMP180;54819;48.030;14.710;2023-02-04T04:04:43;97987.00;;;6.10
68027;BMP180;54819;48.030;14.710;2023-02-04T04:07:09;97986.40;;;6.10
68027;BMP180;54819;48.030;14.710;2023-02-04T04:09:36;97987.20;;;6.06
68027;BMP180;54819;48.030;14.710;2023-02-04T04:12:03;98002.40;;;6.00
68027;BMP180;54819;48.030;14.710;2023-02-04T04:14:30;98002.80;;;6.00
68027;BMP180;54819;48.030;14.710;2023-02-04T04:16:57;97991.40;;;6.00
68027;BMP180;54819;48.030;14.710;2023-02-04T04:19:23;97990.00;;;6.00
68027;BMP180;54819;48.030;14.710;2023-02-04T04:21:50;97983.20;;;5.90
68027;BMP180;54819;48.030;14.710;2023-02-04T04:24:17;97977.40;;;5.90
68027;BMP180;54819;48.030;14.710;2023-02-04T04:26:44;97996.80;;;5.80
68027;BMP180;54819;48.030;14.710;2023-02-04T04:29:10;98010.40;;;5.80
68027;BMP180;54819;48.030;14.710;2023-02-04T04:31:37;98001.20;;;5.80
68027;BMP180;54819;48.030;14.710;2023-02-04T04:34:04;98013.00;;;5.70
68027;BMP180;54819;48.030;14.710;2023-02-04T04:36:31;98015.20;;;5.70
68027;BMP180;54819;48.030;14.710;2023-02-04T04:38:58;98022.00;;;5.72
68027;BMP180;54819;48.030;14.710;2023-02-04T04:41:25;98012.20;;;5.70
68027;BMP180;54819;48.030;14.710;2023-02-04T04:43:52;98026.60;;;5.66
68027;BMP180;54819;48.030;14.710;2023-02-04T04:46:19;98035.00;;;5.64
68027;BMP180;54819;48.030;14.710;2023-02-04T04:48:46;98036.00;;;5.60
68027;BMP180;54819;48.030;14.710;2023-02-04T04:51:13;98040.00;;;5.70
68027;BMP180;54819;48.030;14.710;2023-02-04T04:53:39;98068.80;;;5.60
68027;BMP180;54819;48.030;14.710;2023-02-04T04:56:06;98051.80;;;5.60
68027;BMP180;54819;48.030;14.710;2023-02-04T04:58:33;98055.20;;;5.60
68027;BMP180;54819;48.030;14.710;2023-02-04T05:01:00;98053.20;;;5.70
68027;BMP180;54819;48.030;14.710;2023-02-04T05:03:26;98066.80;;;5.70
68027;BMP180;54819;48.030;14.710;2023-02-04T05:05:53;98061.20;;;5.70
68027;BMP180;54819;48.030;14.710;2023-02-04T05:08:20;98068.00;;;5.70
68027;BMP180;54819;48.030;14.710;2023-02-04T05:10:47;98086.40;;;5.70
68027;BMP180;54819;48.030;14.710;2023-02-04T05:13:14;98094.40;;;5.70
68027;BMP180;54819;48.030;14.710;2023-02-04T05:15:41;98078.20;;;5.70
68027;BMP180;54819;48.030;14.710;2023-02-04T05:18:08;98080.40;;;5.70
68027;BMP180;54819;48.030;14.710;2023-02-04T05:20:35;98083.80;;;5.70
68027;BMP180;54819;48.030;14.710;2023-02-04T05:23:02;98097.40;;;5.80
68027;BMP180;54819;48.030;14.710;2023-02-04T05:25:31;98104.60;;;5.74
68027;BMP180;54819;48.030;14.710;2023-02-04T05:27:58;98118.40;;;5.70
68027;BMP180;54819;48.030;14.710;2023-02-04T05:30:25;98137.00;;;5.70
68027;BMP180;54819;48.030;14.710;2023-02-04T05:32:52;98137.80;;;5.74
68027;BMP180;54819;48.030;14.710;2023-02-04T05:35:18;98150.80;;;5.80
68027;BMP180;54819;48.030;14.710;2023-02-04T05:37:45;98158.00;;;5.80
68027;BMP180;54819;48.030;14.710;2023-02-04T05:40:13;98173.80;;;5.80
68027;BMP180;54819;48.030;14.710;2023-02-04T05:42:39;98190.80;;;5.70
68027;BMP180;54819;48.030;14.710;2023-02-04T05:45:14;98219.20;;;5.68
68027;BMP180;54819;48.030;14.710;2023-02-04T05:47:42;98267.40;;;5.60
68027;BMP180;54819;48.030;14.710;2023-02-04T05:50:08;98293.80;;;5.50
68027;BMP180;54819;48.030;14.710;2023-02-04T05:52:36;98306.80;;;5.00
68027;BMP180;54819;48.030;14.710;2023-02-04T05:55:03;98323.80;;;4.54
68027;BMP180;54819;48.030;14.710;2023-02-04T05:57:30;98325.00;;;4.30
68027;BMP180;54819;48.030;14.710;2023-02-04T05:59:57;98324.80;;;3.94
68027;BMP180;54819;48.030;14.710;2023-02-04T06:02:24;98336.00;;;3.70
68027;BMP180;54819;48.030;14.710;2023-02-04T06:04:50;98347.00;;;3.60
68027;BMP180;54819;48.030;14.710;2023-02-04T06:07:17;98363.40;;;3.44
68027;BMP180;54819;48.030;14.710;2023-02-04T06:09:44;98378.20;;;3.36
68027;BMP180;54819;48.030;14.710;2023-02-04T06:12:10;98384.00;;;3.30
68027;BMP180;54819;48.030;14.710;2023-02-04T06:14:37;98391.80;;;3.20
68027;BMP180;54819;48.030;14.710;2023-02-04T06:17:04;98396.60;;;3.20
68027;BMP180;54819;48.030;14.710;2023-02-04T06:19:31;98402.60;;;3.10
68027;BMP180;54819;48.030;14.710;2023-02-04T06:21:57;98405.80;;;3.10
68027;BMP180;54819;48.030;14.710;2023-02-04T06:24:24;98404.00;;;3.10
68027;BMP180;54819;48.030;14.710;2023-02-04T06:26:51;98430.60;;;3.10
68027;BMP180;54819;48.030;14.710;2023-02-04T06:29:17;98437.40;;;3.10
68027;BMP180;54819;48.030;14.710;2023-02-04T06:31:44;98446.20;;;3.00
68027;BMP180;54819;48.030;14.710;2023-02-04T06:34:12;98463.00;;;3.00
68027;BMP180;54819;48.030;14.710;2023-02-04T06:36:39;98476.20;;;3.06
68027;BMP180;54819;48.030;14.710;2023-02-04T06:39:06;98493.60;;;3.00
68027;BMP180;54819;48.030;14.710;2023-02-04T06:41:33;98507.60;;;3.00
68027;BMP180;54819;48.030;14.710;2023-02-04T06:44:00;98528.40;;;3.08
68027;BMP180;54819;48.030;14.710;2023-02-04T06:46:26;98514.40;;;3.00
68027;BMP180;54819;48.030;14.710;2023-02-04T06:48:53;98529.40;;;2.90
68027;BMP180;54819;48.030;14.710;2023-02-04T06:51:20;98526.40;;;2.80
68027;BMP180;54819;48.030;14.710;2023-02-04T06:53:47;98543.00;;;2.70
68027;BMP180;54819;48.030;14.710;2023-02-04T06:56:13;98548.80;;;2.60
68027;BMP180;54819;48.030;14.710;2023-02-04T06:58:40;98556.80;;;2.60
68027;BMP180;54819;48.030;14.710;2023-02-04T07:01:07;98553.20;;;2.60
68027;BMP180;54819;48.030;14.710;2023-02-04T07:03:33;98558.00;;;2.50
68027;BMP180;54819;48.030;14.710;2023-02-04T07:06:00;98563.20;;;2.50
68027;BMP180;54819;48.030;14.710;2023-02-04T07:08:27;98564.40;;;2.60
68027;BMP180;54819;48.030;14.710;2023-02-04T07:10:54;98575.60;;;2.60
68027;BMP180;54819;48.030;14.710;2023-02-04T07:13:20;98579.20;;;2.60
68027;BMP180;54819;48.030;14.710;2023-02-04T07:15:47;98589.80;;;2.70
68027;BMP180;54819;48.030;14.710;2023-02-04T07:18:15;98593.00;;;2.80
68027;BMP180;54819;48.030;14.710;2023-02-04T07:20:42;98604.00;;;2.90
68027;BMP180;54819;48.030;14.710;2023-02-04T07:23:09;98609.00;;;3.00
68027;BMP180;54819;48.030;14.710;2023-02-04T07:25:35;98622.80;;;3.10
68027;BMP180;54819;48.030;14.710;2023-02-04T07:28:04;98629.00;;;3.10
68027;BMP180;54819;48.030;14.710;2023-02-04T07:30:32;98634.80;;;3.20
68027;BMP180;54819;48.030;14.710;2023-02-04T07:32:59;98639.40;;;3.30
68027;BMP180;54819;48.030;14.710;2023-02-04T07:35:26;98640.40;;;3.30
68027;BMP180;54819;48.030;14.710;2023-02-04T07:37:52;98652.60;;;3.30
68027;BMP180;54819;48.030;14.710;2023-02-04T07:40:19;98655.60;;;3.20
68027;BMP180;54819;48.030;14.710;2023-02-04T07:42:47;98658.60;;;3.20
68027;BMP180;54819;48.030;14.710;2023-02-04T07:45:15;98654.80;;;3.20
68027;BMP180;54819;48.030;14.710;2023-02-04T07:47:42;98670.60;;;3.20
68027;BMP180;54819;48.030;14.710;2023-02-04T07:50:08;98680.40;;;3.20
68027;BMP180;54819;48.030;14.710;2023-02-04T07:52:35;98683.20;;;3.20
68027;BMP180;54819;48.030;14.710;2023-02-04T07:55:02;98685.60;;;3.24
68027;BMP180;54819;48.030;14.710;2023-02-04T07:57:29;98694.80;;;3.20
68027;BMP180;54819;48.030;14.710;2023-02-04T07:59:56;98703.00;;;3.26
68027;BMP180;54819;48.030;14.710;2023-02-04T08:02:23;98705.00;;;3.30
68027;BMP180;54819;48.030;14.710;2023-02-04T08:04:50;98706.20;;;3.30
68027;BMP180;54819;48.030;14.710;2023-02-04T08:07:17;98710.20;;;3.40
68027;BMP180;54819;48.030;14.710;2023-02-04T08:09:43;98712.40;;;3.40
68027;BMP180;54819;48.030;14.710;2023-02-04T08:12:10;98707.20;;;3.40
68027;BMP180;54819;48.030;14.710;2023-02-04T08:14:37;98731.80;;;3.40
68027;BMP180;54819;48.030;14.710;2023-02-04T08:17:03;98742.40;;;3.40
68027;BMP180;54819;48.030;14.710;2023-02-04T08:19:30;98750.80;;;3.50
68027;BMP180;54819;48.030;14.710;2023-02-04T08:21:57;98762.80;;;3.48
68027;BMP180;54819;48.030;14.710;2023-02-04T08:24:24;98771.00;;;3.40
68027;BMP180;54819;48.030;14.710;2023-02-04T08:26:50;98782.80;;;3.40
68027;BMP180;54819;48.030;14.710;2023-02-04T08:29:17;98789.20;;;3.30
68027;BMP180;54819;48.030;14.710;2023-02-04T08:31:44;98797.20;;;3.30
68027;BMP180;54819;48.030;14.710;2023-02-04T08:34:13;98811.00;;;3.20
68027;BMP180;54819;48.030;14.710;2023-02-04T08:36:40;98818.60;;;3.16
68027;BMP180;54819;48.030;14.710;2023-02-04T08:39:06;98833.20;;;3.14
68027;BMP180;54819;48.030;14.710;2023-02-04T08:41:33;98839.20;;;3.20
68027;BMP180;54819;48.030;14.710;2023-02-04T08:44:00;98857.40;;;3.10
68027;BMP180;54819;48.030;14.710;2023-02-04T08:46:26;98860.20;;;3.10
68027;BMP180;54819;48.030;14.710;2023-02-04T08:48:54;98871.40;;;3.10
68027;BMP180;54819;48.030;14.710;2023-02-04T08:51:21;98881.20;;;3.10
68027;BMP180;54819;48.030;14.710;2023-02-04T08:53:47;98878.20;;;3.20
68027;BMP180;54819;48.030;14.710;2023-02-04T08:56:14;98879.00;;;3.30
68027;BMP180;54819;48.030;14.710;2023-02-04T08:58:43;98881.80;;;3.40
68027;BMP180;54819;48.030;14.710;2023-02-04T09:01:10;98885.20;;;3.50
68027;BMP180;54819;48.030;14.710;2023-02-04T09:03:38;98885.80;;;3.50
68027;BMP180;54819;48.030;14.710;2023-02-04T09:06:05;98884.60;;;3.66
68027;BMP180;54819;48.030;14.710;2023-02-04T09:08:33;98889.80;;;3.70
68027;BMP180;54819;48.030;14.710;2023-02-04T09:10:59;98895.80;;;3.80
68027;BMP180;54819;48.030;14.710;2023-02-04T09:13:26;98898.60;;;3.88
68027;BMP180;54819;48.030;14.710;2023-02-04T09:15:53;98906.20;;;3.90
68027;BMP180;54819;48.030;14.710;2023-02-04T09:18:20;98913.20;;;4.00
68027;BMP180;54819;48.030;14.710;2023-02-04T09:20:48;98919.20;;;4.10
68027;BMP180;54819;48.030;14.710;2023-02-04T09:23:15;98920.00;;;4.20
68027;BMP180;54819;48.030;14.710;2023-02-04T09:25:44;98926.80;;;4.30
68027;BMP180;54819;48.030;14.710;2023-02-04T09:28:12;98927.60;;;4.30
68027;BMP180;54819;48.030;14.710;2023-02-04T09:30:41;98932.40;;;4.30
68027;BMP180;54819;48.030;14.710;2023-02-04T09:33:10;98936.40;;;4.30
68027;BMP180;54819;48.030;14.710;2023-02-04T09:35:37;98941.60;;;4.30
68027;BMP180;54819;48.030;14.710;2023-02-04T09:38:04;98947.20;;;4.20
68027;BMP180;54819;48.030;14.710;2023-02-04T09:40:33;98956.60;;;4.20
68027;BMP180;54819;48.030;14.710;2023-02-04T09:43:04;98962.60;;;4.00
68027;BMP180;54819;48.030;14.710;2023-02-04T09:45:33;98951.60;;;4.00
68027;BMP180;54819;48.030;14.710;2023-02-04T09:48:04;98962.20;;;4.00
68027;BMP180;54819;48.030;14.710;2023-02-04T09:50:34;98968.00;;;4.00
68027;BMP180;54819;48.030;14.710;2023-02-04T09:53:04;98967.00;;;3.90
68027;BMP180;54819;48.030;14.710;2023-02-04T09:55:35;98965.00;;;3.92
68027;BMP180;54819;48.030;14.710;2023-02-04T09:58:12;98971.00;;;3.92
68027;BMP180;54819;48.030;14.710;2023-02-04T10:00:43;98975.40;;;3.90
68027;BMP180;54819;48.030;14.710;2023-02-04T10:03:14;98978.60;;;4.00
68027;BMP180;54819;48.030;14.710;2023-02-04T10:05:44;98971.60;;;3.98
68027;BMP180;54819;48.030;14.710;2023-02-04T10:08:16;98980.60;;;4.00
68027;BMP180;54819;48.030;14.710;2023-02-04T10:10:45;98987.80;;;4.10
68027;BMP180;54819;48.030;14.710;2023-02-04T10:13:22;98976.20;;;4.10
68027;BMP180;54819;48.030;14.710;2023-02-04T10:15:50;98978.00;;;4.20
68027;BMP180;54819;48.030;14.710;2023-02-04T10:18:25;98974.00;;;4.28
68027;BMP180;54819;48.030;14.710;2023-02-04T10:21:21;98976.00;;;4.28
68027;BMP180;54819;48.030;14.710;2023-02-04T10:23:53;98973.40;;;4.40
68027;BMP180;54819;48.030;14.710;2023-02-04T10:26:22;98975.00;;;4.40
68027;BMP180;54819;48.030;14.710;2023-02-04T10:28:49;98964.60;;;4.40
68027;BMP180;54819;48.030;14.710;2023-02-04T10:31:28;98963.80;;;4.40
68027;BMP180;54819;48.030;14.710;2023-02-04T10:34:13;98964.40;;;4.30
68027;BMP180;54819;48.030;14.710;2023-02-04T10:36:46;98956.20;;;4.30
68027;BMP180;54819;48.030;14.710;2023-02-04T10:39:16;98959.60;;;4.38
68027;BMP180;54819;48.030;14.710;2023-02-04T10:44:18;98958.20;;;4.30
68027;BMP180;54819;48.030;14.710;2023-02-04T10:46:46;98958.00;;;4.40
68027;BMP180;54819;48.030;14.710;2023-02-04T10:49:17;98959.40;;;4.50
68027;BMP180;54819;48.030;14.710;2023-02-04T10:51:45;98960.40;;;4.58
68027;BMP180;54819;48.030;14.710;2023-02-04T10:54:12;98948.00;;;4.70
68027;BMP180;54819;48.030;14.710;2023-02-04T10:57:23;98953.20;;;4.86
68027;BMP180;54819;48.030;14.710;2023-02-04T10:59:57;98951.80;;;5.00
68027;BMP180;54819;48.030;14.710;2023-02-04T11:05:13;98945.40;;;5.22
68027;BMP180;54819;48.030;14.710;2023-02-04T11:07:40;98949.20;;;5.40
68027;BMP180;54819;48.030;14.710;2023-02-04T11:10:30;98952.80;;;5.58
68027;BMP180;54819;48.030;14.710;2023-02-04T11:13:02;98955.60;;;5.66
68027;BMP180;54819;48.030;14.710;2023-02-04T11:18:08;98945.60;;;5.70
68027;BMP180;54819;48.030;14.710;2023-02-04T11:20:36;98949.80;;;5.60
68027;BMP180;54819;48.030;14.710;2023-02-04T11:23:15;98945.60;;;5.70
68027;BMP180;54819;48.030;14.710;2023-02-04T11:25:42;98941.80;;;5.70
68027;BMP180;54819;48.030;14.710;2023-02-04T11:28:14;98936.20;;;5.70
68027;BMP180;54819;48.030;14.710;2023-02-04T11:30:41;98933.00;;;5.70
68027;BMP180;54819;48.030;14.710;2023-02-04T11:33:23;98933.00;;;5.60
68027;BMP180;54819;48.030;14.710;2023-02-04T11:36:00;98928.60;;;5.60
68027;BMP180;54819;48.030;14.710;2023-02-04T11:38:29;98931.20;;;5.70
68027;BMP180;54819;48.030;14.710;2023-02-04T11:40:57;98931.20;;;5.68
68027;BMP180;54819;48.030;14.710;2023-02-04T11:43:25;98932.20;;;5.70
68027;BMP180;54819;48.030;14.710;2023-02-04T11:46:12;98939.40;;;5.80
68027;BMP180;54819;48.030;14.710;2023-02-04T11:48:40;98943.60;;;5.76
68027;BMP180;54819;48.030;14.710;2023-02-04T11:51:12;98946.20;;;5.80
68027;BMP180;54819;48.030;14.710;2023-02-04T11:53:39;98948.20;;;5.90
68027;BMP180;54819;48.030;14.710;2023-02-04T11:56:18;98949.60;;;5.86
68027;BMP180;54819;48.030;14.710;2023-02-04T11:58:45;98950.20;;;5.90
68027;BMP180;54819;48.030;14.710;2023-02-04T12:01:22;98951.40;;;5.90
68027;BMP180;54819;48.030;14.710;2023-02-04T12:03:56;98951.20;;;5.98
68027;BMP180;54819;48.030;14.710;2023-02-04T12:06:26;98940.00;;;6.00
68027;BMP180;54819;48.030;14.710;2023-02-04T12:09:23;98953.00;;;6.00
68027;BMP180;54819;48.030;14.710;2023-02-04T12:11:55;98951.80;;;6.00
68027;BMP180;54819;48.030;14.710;2023-02-04T12:14:28;98949.80;;;6.02
68027;BMP180;54819;48.030;14.710;2023-02-04T12:16:57;98950.40;;;6.00
68027;BMP180;54819;48.030;14.710;2023-02-04T12:19:23;98949.00;;;6.04
68027;BMP180;54819;48.030;14.710;2023-02-04T12:21:53;98949.60;;;6.06
68027;BMP180;54819;48.030;14.710;2023-02-04T12:24:20;98943.20;;;6.10
68027;BMP180;54819;48.030;14.710;2023-02-04T12:26:47;98948.00;;;6.10
68027;BMP180;54819;48.030;14.710;2023-02-04T12:29:14;98944.60;;;6.00
68027;BMP180;54819;48.030;14.710;2023-02-04T12:31:40;98943.80;;;5.98
68027;BMP180;54819;48.030;14.710;2023-02-04T12:34:07;98942.60;;;5.88
68027;BMP180;54819;48.030;14.710;2023-02-04T12:36:34;98944.80;;;5.80
68027;BMP180;54819;48.030;14.710;2023-02-04T12:39:01;98946.80;;;5.76
68027;BMP180;54819;48.030;14.710;2023-02-04T12:41:28;98942.20;;;5.78
68027;BMP180;54819;48.030;14.710;2023-02-04T12:43:55;98945.80;;;5.90
68027;BMP180;54819;48.030;14.710;2023-02-04T12:46:21;98950.40;;;5.90
68027;BMP180;54819;48.030;14.710;2023-02-04T12:48:49;98933.60;;;5.90
68027;BMP180;54819;48.030;14.710;2023-02-04T12:51:15;98947.00;;;5.90
68027;BMP180;54819;48.030;14.710;2023-02-04T12:53:42;98949.40;;;6.00
68027;BMP180;54819;48.030;14.710;2023-02-04T12:56:09;98954.60;;;5.90
68027;BMP180;54819;48.030;14.710;2023-02-04T12:58:36;98955.60;;;5.80
68027;BMP180;54819;48.030;14.710;2023-02-04T13:01:03;98959.80;;;5.80
68027;BMP180;54819;48.030;14.710;2023-02-04T13:03:30;98957.00;;;5.78
68027;BMP180;54819;48.030;14.710;2023-02-04T13:05:57;98957.80;;;5.60
68027;BMP180;54819;48.030;14.710;2023-02-04T13:08:24;98970.00;;;5.60
68027;BMP180;54819;48.030;14.710;2023-02-04T13:10:51;98972.80;;;5.50
68027;BMP180;54819;48.030;14.710;2023-02-04T13:13:19;98983.20;;;5.40
68027;BMP180;54819;48.030;14.710;2023-02-04T13:15:47;98985.60;;;5.20
68027;BMP180;54819;48.030;14.710;2023-02-04T13:18:14;98986.00;;;5.10
68027;BMP180;54819;48.030;14.710;2023-02-04T13:20:43;98994.20;;;5.00
68027;BMP180;54819;48.030;14.710;2023-02-04T13:23:12;98988.40;;;4.92
68027;BMP180;54819;48.030;14.710;2023-02-04T13:25:39;98989.60;;;4.90
68027;BMP180;54819;48.030;14.710;2023-02-04T13:28:06;98987.40;;;4.98
68027;BMP180;54819;48.030;14.710;2023-02-04T13:30:33;98994.20;;;5.00
68027;BMP180;54819;48.030;14.710;2023-02-04T13:33:00;98998.40;;;5.00
68027;BMP180;54819;48.030;14.710;2023-02-04T13:35:26;98997.20;;;4.90
68027;BMP180;54819;48.030;14.710;2023-02-04T13:37:53;99008.60;;;4.90
68027;BMP180;54819;48.030;14.710;2023-02-04T13:40:22;99007.60;;;4.80
68027;BMP180;54819;48.030;14.710;2023-02-04T13:42:49;99018.20;;;4.76
68027;BMP180;54819;48.030;14.710;2023-02-04T13:45:15;99020.80;;;4.70
68027;BMP180;54819;48.030;14.710;2023-02-04T13:47:44;99030.40;;;4.60
68027;BMP180;54819;48.030;14.710;2023-02-04T13:50:15;99037.40;;;4.60
68027;BMP180;54819;48.030;14.710;2023-02-04T13:52:42;99033.00;;;4.50
68027;BMP180;54819;48.030;14.710;2023-02-04T13:55:09;99034.80;;;4.30
68027;BMP180;54819;48.030;14.710;2023-02-04T13:57:36;99037.60;;;4.20
68027;BMP180;54819;48.030;14.710;2023-02-04T14:00:04;99047.00;;;4.20
68027;BMP180;54819;48.030;14.710;2023-02-04T14:02:38;99041.20;;;4.10
68027;BMP180;54819;48.030;14.710;2023-02-04T14:05:05;99044.20;;;4.08
68027;BMP180;54819;48.030;14.710;2023-02-04T14:07:32;99043.40;;;4.08
68027;BMP180;54819;48.030;14.710;2023-02-04T14:09:59;99051.40;;;4.02
68027;BMP180;54819;48.030;14.710;2023-02-04T14:12:26;99058.00;;;4.00
68027;BMP180;54819;48.030;14.710;2023-02-04T14:14:52;99047.80;;;4.00
68027;BMP180;54819;48.030;14.710;2023-02-04T14:17:19;99051.20;;;4.00
68027;BMP180;54819;48.030;14.710;2023-02-04T14:19:46;99051.80;;;4.00
68027;BMP180;54819;48.030;14.710;2023-02-04T14:22:13;99058.60;;;4.00